Southwest Georgia Regional Airport
KABY : now visible

Airfield :











YOU CAN JOIN US ON...

 
LOGIN :

Register | Disclaimer

   EN    FR    IT 

 









Legend :    VFR   Marginal VFR   IFR   Intensive IFR   Very Intensive IFR
Visi :
Ceiling :
>= 8 km
>= 3000ft
5 to 8 km
1000 to 3000 ft
1500m to 5 km
500 to 1000 ft
800 to 1500m
200 to 500 ft
< 800m
< 200 ft
Symbols :   Thunderstorms  Fog  Heavy snow  Heavy precipitations  Wind > 20 kt






- Airport Elevation : 197 ft
- IATA code : ABY


KABY - Southwest Georgia Regional

CURRENT METAR :
  • 021554Z 33006KT 10SM BKN024 30/22 A3009 RMK AO2 T03000222

EXPIRED METARs :
  • 021516Z 28006KT 10SM BKN017 28/23 A3009 RMK AO2 T02780233
  • 021453Z 00000KT 10SM FEW014 28/24 A3009 RMK AO2 SLP188 T02830239 50003
  • 020253Z AUTO 00000KT 10SM CLR 26/24 A3007 RMK AO2 SLP180 60000 T02560239 50007
  • 021353Z 24003KT 10SM CLR 25/23 A3010 RMK AO2 SLP191 T02500233

TAF KABY
Valid from the 02 at 12:00 until the 03 at 12:00 UTC


021120Z 0212/0312 VRB03KT P6SM SCT002 BKN150
FM021800 27005KT P6SM VCTS SCT035CB
TEMPO 0219/0223 -TSRA BKN030CB
FM030200 22003KT P6SM BKN120
FM030900 VRB03KT P6SM BKN012
KZJX FIR / North America



MET'MAP, your aeronautical weather chart ! - Copyright ORBIFLY December 2007 - Disclaimer

ORBIFLY MET'MAP TEAM :

Programming & Development : Alexandra Zaïnal
Original concept : Baudouin d'Aumeries
Technical & hardware support : Manuel Goepfert
Assistance : Marc-Olivier Méhu




SOURCES & CREDITS :

   NOAA       Earth
Advisory